TimeEDT,TemperatureF,Dew PointF,Humidity,Sea Level PressureIn,VisibilityMPH,Wind Direction,Wind SpeedMPH,Gust SpeedMPH,PrecipitationIn,Events,Conditions,WindDirDegrees,DateUTC
12:14 AM,49.5,44.6,83,30.14,10.0,SW,5.8,-,N/A,,Clear,230,2013-10-08 04:14:00
12:35 AM,49.3,44.6,84,30.15,10.0,WSW,4.6,-,N/A,,Clear,240,2013-10-08 04:35:00
12:55 AM,48.7,44.2,84,30.15,10.0,SW,3.5,-,N/A,,Clear,230,2013-10-08 04:55:00
1:14 AM,48.4,44.1,85,30.16,10.0,Calm,Calm,-,N/A,,Clear,0,2013-10-08 05:14:00
1:35 AM,48.4,44.1,85,30.16,10.0,WSW,5.8,-,N/A,,Clear,250,2013-10-08 05:35:00
1:54 AM,48.4,43.9,84,30.17,10.0,West,5.8,-,N/A,,Clear,260,2013-10-08 05:54:00
2:15 AM,48.2,43.9,85,30.16,10.0,West,3.5,-,N/A,,Clear,270,2013-10-08 06:15:00
2:35 AM,48.2,43.9,85,30.17,10.0,West,3.5,-,N/A,,Clear,260,2013-10-08 06:35:00
2:54 AM,49.1,44.6,84,30.17,10.0,West,5.8,-,N/A,,Clear,270,2013-10-08 06:54:00
3:15 AM,49.6,44.6,83,30.17,10.0,Calm,Calm,-,N/A,,Clear,0,2013-10-08 07:15:00
3:34 AM,48.7,44.1,84,30.18,10.0,Calm,Calm,-,N/A,,Clear,0,2013-10-08 07:34:00
3:55 AM,47.7,43.9,87,30.18,10.0,WSW,3.5,-,N/A,,Clear,250,2013-10-08 07:55:00
4:15 AM,47.3,43.7,87,30.19,10.0,WSW,4.6,-,N/A,,Clear,250,2013-10-08 08:15:00
4:34 AM,47.7,43.9,87,30.19,10.0,WSW,3.5,-,N/A,,Clear,250,2013-10-08 08:34:00
4:55 AM,46.9,43.7,88,30.20,10.0,SSW,4.6,-,N/A,,Clear,210,2013-10-08 08:55:00
5:14 AM,46.6,43.3,88,30.22,10.0,WSW,3.5,-,N/A,,Clear,250,2013-10-08 09:14:00
5:35 AM,46.4,43.2,88,30.22,10.0,Calm,Calm,-,N/A,,Clear,0,2013-10-08 09:35:00
5:55 AM,45.9,42.8,89,30.22,10.0,Calm,Calm,-,N/A,,Clear,0,2013-10-08 09:55:00
6:14 AM,45.9,43.0,90,30.22,10.0,Calm,Calm,-,N/A,,Clear,0,2013-10-08 10:14:00
6:35 AM,45.7,42.8,90,30.23,10.0,Calm,Calm,-,N/A,,Clear,0,2013-10-08 10:35:00
6:54 AM,45.1,42.8,91,30.24,10.0,Calm,Calm,-,N/A,,Clear,0,2013-10-08 10:54:00
7:15 AM,45.1,42.8,91,30.25,10.0,Calm,Calm,-,N/A,,Clear,0,2013-10-08 11:15:00
7:35 AM,45.5,42.8,90,30.26,10.0,ENE,3.5,-,N/A,,Clear,70,2013-10-08 11:35:00
7:54 AM,44.8,42.1,90,30.27,10.0,Calm,Calm,-,N/A,,Clear,0,2013-10-08 11:54:00
8:15 AM,45.5,42.8,90,30.28,10.0,Calm,Calm,-,N/A,,Clear,0,2013-10-08 12:15:00
8:35 AM,46.9,43.7,88,30.28,10.0,Calm,Calm,-,N/A,,Clear,0,2013-10-08 12:35:00
8:54 AM,48.2,44.1,86,30.30,10.0,Calm,Calm,-,N/A,,Clear,0,2013-10-08 12:54:00
9:15 AM,50.0,45.7,85,30.30,10.0,Calm,Calm,-,N/A,,Clear,0,2013-10-08 13:15:00
9:34 AM,50.9,45.9,83,30.31,10.0,Calm,Calm,-,N/A,,Clear,0,2013-10-08 13:34:00
9:55 AM,52.5,46.4,80,30.32,10.0,Calm,Calm,-,N/A,,Clear,0,2013-10-08 13:55:00
10:15 AM,54.0,46.4,76,30.32,10.0,Calm,Calm,-,N/A,,Clear,0,2013-10-08 14:15:00
10:34 AM,55.8,46.9,72,30.32,10.0,Calm,Calm,-,N/A,,Clear,0,2013-10-08 14:34:00
10:54 AM,57.7,46.0,65,30.31,10.0,Calm,Calm,-,N/A,,Clear,0,2013-10-08 14:54:00
11:15 AM,59.5,45.7,60,30.32,10.0,Calm,Calm,-,N/A,,Clear,0,2013-10-08 15:15:00
11:34 AM,61.5,45.3,55,30.31,10.0,South,3.5,-,N/A,,Clear,190,2013-10-08 15:34:00
11:55 AM,62.8,41.4,45,30.31,10.0,South,4.6,-,N/A,,Clear,180,2013-10-08 15:55:00
12:14 PM,63.9,42.3,45,30.31,10.0,SSW,5.8,-,N/A,,Clear,200,2013-10-08 16:14:00
12:35 PM,64.6,40.5,41,30.31,10.0,South,4.6,-,N/A,,Clear,190,2013-10-08 16:35:00
12:54 PM,65.3,40.6,40,30.31,10.0,SSE,4.6,-,N/A,,Clear,150,2013-10-08 16:54:00
1:14 PM,65.8,40.8,40,30.31,10.0,SSE,6.9,-,N/A,,Clear,160,2013-10-08 17:14:00
1:35 PM,66.4,40.5,39,30.30,10.0,SSE,6.9,-,N/A,,Clear,160,2013-10-08 17:35:00
1:54 PM,66.6,38.8,36,30.30,10.0,SE,5.8,-,N/A,,Clear,130,2013-10-08 17:54:00
2:14 PM,66.7,40.5,38,30.29,10.0,South,5.8,-,N/A,,Clear,180,2013-10-08 18:14:00
2:35 PM,67.6,38.8,35,30.29,10.0,South,8.1,-,N/A,,Clear,170,2013-10-08 18:35:00
2:54 PM,67.1,38.3,35,30.28,10.0,SE,4.6,-,N/A,,Clear,140,2013-10-08 18:54:00
3:15 PM,68.0,38.3,34,30.28,10.0,South,5.8,-,N/A,,Clear,180,2013-10-08 19:15:00
3:34 PM,68.0,38.8,34,30.28,10.0,South,4.6,-,N/A,,Clear,180,2013-10-08 19:34:00
3:55 PM,68.4,40.3,36,30.28,10.0,South,5.8,-,N/A,,Clear,170,2013-10-08 19:55:00
4:14 PM,68.5,39.6,35,30.27,10.0,South,4.6,-,N/A,,Clear,170,2013-10-08 20:14:00
4:35 PM,68.0,38.8,34,30.27,10.0,South,5.8,-,N/A,,Clear,190,2013-10-08 20:35:00
4:54 PM,67.8,39.9,36,30.27,10.0,SSE,6.9,-,N/A,,Clear,160,2013-10-08 20:54:00
5:15 PM,67.6,38.5,34,30.28,10.0,South,8.1,-,N/A,,Clear,180,2013-10-08 21:15:00
5:34 PM,67.1,38.5,35,30.28,10.0,SSW,6.9,-,N/A,,Clear,200,2013-10-08 21:34:00
5:54 PM,66.6,37.9,35,30.28,10.0,South,4.6,-,N/A,,Clear,190,2013-10-08 21:54:00
6:14 PM,66.0,39.2,37,30.28,10.0,South,4.6,-,N/A,,Clear,180,2013-10-08 22:14:00
6:34 PM,65.3,39.4,39,30.28,10.0,South,5.8,-,N/A,,Clear,190,2013-10-08 22:34:00
6:54 PM,63.9,39.4,41,30.28,10.0,South,5.8,-,N/A,,Clear,190,2013-10-08 22:54:00
7:15 PM,62.1,39.7,44,30.29,10.0,South,3.5,-,N/A,,Clear,190,2013-10-08 23:15:00
7:34 PM,60.8,41.0,48,30.29,10.0,Calm,Calm,-,N/A,,Clear,0,2013-10-08 23:34:00
7:55 PM,59.7,41.7,51,30.30,10.0,Calm,Calm,-,N/A,,Clear,0,2013-10-08 23:55:00
8:15 PM,58.1,42.8,57,30.30,10.0,Calm,Calm,-,N/A,,Clear,0,2013-10-09 00:15:00
8:34 PM,57.6,42.6,57,30.30,10.0,Calm,Calm,-,N/A,,Clear,0,2013-10-09 00:34:00
8:55 PM,56.5,43.2,61,30.30,10.0,SSE,3.5,-,N/A,,Clear,150,2013-10-09 00:55:00
9:14 PM,56.5,43.3,61,30.31,10.0,Calm,Calm,-,N/A,,Clear,0,2013-10-09 01:14:00
9:35 PM,55.6,43.7,64,30.32,10.0,Calm,Calm,-,N/A,,Clear,0,2013-10-09 01:35:00
9:54 PM,55.4,43.5,64,30.32,10.0,SSE,3.5,-,N/A,,Clear,150,2013-10-09 01:54:00
10:15 PM,54.9,43.5,66,30.32,10.0,SE,3.5,-,N/A,,Clear,140,2013-10-09 02:15:00
10:35 PM,54.9,43.3,65,30.31,10.0,Calm,Calm,-,N/A,,Clear,0,2013-10-09 02:35:00
10:54 PM,54.5,43.3,66,30.31,10.0,Calm,Calm,-,N/A,,Clear,0,2013-10-09 02:54:00
11:15 PM,53.8,43.5,68,30.31,10.0,Calm,Calm,-,N/A,,Clear,0,2013-10-09 03:15:00
11:34 PM,52.9,43.5,71,30.31,10.0,Calm,Calm,-,N/A,,Clear,0,2013-10-09 03:34:00
11:55 PM,52.7,43.9,72,30.31,10.0,Calm,Calm,-,N/A,,Clear,0,2013-10-09 03:55:00